Airfield :
LOGIN :

Register | Disclaimer

   EN    FR    IT 

 










Legend :    VFR   Marginal VFR   IFR   Intensive IFR   Very Intensive IFR
Visi :
Ceiling :
>= 8 km
>= 3000ft
5 to 8 km
1000 to 3000 ft
1500m to 5 km
500 to 1000 ft
800 to 1500m
200 to 500 ft
< 800m
< 200 ft
Symbols :   Thunderstorms  Fog  Heavy snow  Heavy precipitations  Wind > 20 kt
SIGMETs :     Misc.  Thunderstorms  Icing  Turbulence  Mountain Waves  Volcanic Ashes







- Airport Elevation : 459 ft
- IATA code : CER
- Download approach charts


LFRC - Cherbourg / Maupertus

CURRENT METAR :
  • 220630Z AUTO VRB02KT 3200 BR OVC004 07/07 Q1029 TEMPO 0600 FG VV///

EXPIRED METARs :
  • 220600Z AUTO 00000KT 4400 BR OVC005 07/07 Q1029 TEMPO 0600 FG VV///
  • 220530Z AUTO 00000KT 4700 BR OVC005 07/07 Q1029 TEMPO 0600 FG VV///
  • 220500Z AUTO 00000KT 4900 BR OVC005 07/07 Q1029
  • 220430Z AUTO VRB02KT 5000 BR OVC005 07/07 Q1029
  • 220400Z AUTO 17004KT 5000 BR OVC006 07/07 Q1029

TAF TAF LFRC
Valid from the 22 at 06:00 until the 22 at 15:00 UTC


220500Z 2206/2215 VRB04KT 3000 BR BKN005
TEMPO 2206/2208 0600 FG VV///
BECMG 2211/2213 BKN012
No reported NOTAMs for that airfield.



MET'MAP, your aeronautical weather chart ! - Copyright ORBIFLY December 2007 - Disclaimer

ORBIFLY MET'MAP TEAM :

Programming & Development : Alexandra Zaïnal
Concept & Development : Baudouin d'Aumeries
Co-Development & Prog : Marc-Olivier Méhu
Technical & hardware support : Manuel Goepfert

Contact : metmap@orbifly.com




SOURCES & CREDITS :

   NOAA